sensor_id;sensor_type;location;lat;lon;timestamp;P1;durP1;ratioP1;P2;durP2;ratioP2
20497;SDS011;10407;53.238;10.448;2023-04-06T00:01:19;75.60;;;7.40;;
20497;SDS011;10407;53.238;10.448;2023-04-06T00:03:46;75.13;;;7.23;;
20497;SDS011;10407;53.238;10.448;2023-04-06T00:06:14;76.80;;;7.83;;
20497;SDS011;10407;53.238;10.448;2023-04-06T00:08:42;77.37;;;8.30;;
20497;SDS011;10407;53.238;10.448;2023-04-06T00:11:10;77.70;;;8.50;;
20497;SDS011;10407;53.238;10.448;2023-04-06T00:13:38;77.67;;;7.57;;
20497;SDS011;10407;53.238;10.448;2023-04-06T00:16:05;77.67;;;7.10;;
20497;SDS011;10407;53.238;10.448;2023-04-06T00:18:33;75.73;;;7.53;;
20497;SDS011;10407;53.238;10.448;2023-04-06T00:21:00;75.40;;;7.23;;
20497;SDS011;10407;53.238;10.448;2023-04-06T00:23:28;76.00;;;6.87;;
20497;SDS011;10407;53.238;10.448;2023-04-06T00:25:56;77.03;;;7.90;;
20497;SDS011;10407;53.238;10.448;2023-04-06T00:28:24;78.40;;;7.33;;
20497;SDS011;10407;53.238;10.448;2023-04-06T00:30:52;76.40;;;7.63;;
20497;SDS011;10407;53.238;10.448;2023-04-06T00:33:21;75.50;;;7.80;;
20497;SDS011;10407;53.238;10.448;2023-04-06T00:35:49;76.10;;;8.20;;
20497;SDS011;10407;53.238;10.448;2023-04-06T00:38:17;76.90;;;8.03;;
20497;SDS011;10407;53.238;10.448;2023-04-06T00:40:44;76.00;;;7.50;;
20497;SDS011;10407;53.238;10.448;2023-04-06T00:43:12;78.00;;;7.60;;
20497;SDS011;10407;53.238;10.448;2023-04-06T00:45:40;76.03;;;7.43;;
20497;SDS011;10407;53.238;10.448;2023-04-06T00:48:08;77.30;;;7.70;;
20497;SDS011;10407;53.238;10.448;2023-04-06T00:50:36;76.80;;;7.70;;
20497;SDS011;10407;53.238;10.448;2023-04-06T00:53:04;77.40;;;7.83;;
20497;SDS011;10407;53.238;10.448;2023-04-06T00:55:31;76.37;;;8.83;;
20497;SDS011;10407;53.238;10.448;2023-04-06T00:58:01;76.97;;;7.80;;
20497;SDS011;10407;53.238;10.448;2023-04-06T01:00:29;76.17;;;7.87;;
20497;SDS011;10407;53.238;10.448;2023-04-06T01:02:58;82.57;;;7.57;;
20497;SDS011;10407;53.238;10.448;2023-04-06T01:05:26;76.40;;;7.17;;
20497;SDS011;10407;53.238;10.448;2023-04-06T01:07:54;76.23;;;7.33;;
20497;SDS011;10407;53.238;10.448;2023-04-06T01:10:22;75.53;;;6.57;;
20497;SDS011;10407;53.238;10.448;2023-04-06T01:12:51;75.73;;;7.73;;
20497;SDS011;10407;53.238;10.448;2023-04-06T01:15:19;76.63;;;8.10;;
20497;SDS011;10407;53.238;10.448;2023-04-06T01:17:47;77.60;;;8.33;;
20497;SDS011;10407;53.238;10.448;2023-04-06T01:20:15;75.80;;;7.63;;
20497;SDS011;10407;53.238;10.448;2023-04-06T01:22:42;76.77;;;7.77;;
20497;SDS011;10407;53.238;10.448;2023-04-06T01:25:10;75.20;;;6.80;;
20497;SDS011;10407;53.238;10.448;2023-04-06T01:27:38;76.27;;;7.23;;
20497;SDS011;10407;53.238;10.448;2023-04-06T01:30:06;74.87;;;6.90;;
20497;SDS011;10407;53.238;10.448;2023-04-06T01:32:34;84.43;;;9.40;;
20497;SDS011;10407;53.238;10.448;2023-04-06T01:35:01;75.17;;;6.93;;
20497;SDS011;10407;53.238;10.448;2023-04-06T01:37:29;77.77;;;8.00;;
20497;SDS011;10407;53.238;10.448;2023-04-06T01:39:58;74.20;;;7.40;;
20497;SDS011;10407;53.238;10.448;2023-04-06T01:42:26;75.60;;;7.63;;
20497;SDS011;10407;53.238;10.448;2023-04-06T01:44:54;74.90;;;7.87;;
20497;SDS011;10407;53.238;10.448;2023-04-06T01:47:22;77.20;;;7.97;;
20497;SDS011;10407;53.238;10.448;2023-04-06T01:49:49;76.17;;;7.63;;
20497;SDS011;10407;53.238;10.448;2023-04-06T01:52:17;77.07;;;7.27;;
20497;SDS011;10407;53.238;10.448;2023-04-06T01:54:44;77.40;;;6.77;;
20497;SDS011;10407;53.238;10.448;2023-04-06T01:57:12;75.90;;;7.60;;
20497;SDS011;10407;53.238;10.448;2023-04-06T01:59:40;77.47;;;6.80;;
20497;SDS011;10407;53.238;10.448;2023-04-06T02:02:07;74.90;;;7.07;;
20497;SDS011;10407;53.238;10.448;2023-04-06T02:04:35;76.30;;;6.93;;
20497;SDS011;10407;53.238;10.448;2023-04-06T02:07:02;76.50;;;7.07;;
20497;SDS011;10407;53.238;10.448;2023-04-06T02:09:30;77.23;;;8.73;;
20497;SDS011;10407;53.238;10.448;2023-04-06T02:11:58;77.30;;;8.03;;
20497;SDS011;10407;53.238;10.448;2023-04-06T02:14:27;74.77;;;6.90;;
20497;SDS011;10407;53.238;10.448;2023-04-06T02:16:54;76.30;;;7.37;;
20497;SDS011;10407;53.238;10.448;2023-04-06T02:19:22;74.77;;;7.13;;
20497;SDS011;10407;53.238;10.448;2023-04-06T02:21:49;76.87;;;7.67;;
20497;SDS011;10407;53.238;10.448;2023-04-06T02:24:17;78.73;;;8.40;;
20497;SDS011;10407;53.238;10.448;2023-04-06T02:26:44;74.30;;;6.77;;
20497;SDS011;10407;53.238;10.448;2023-04-06T02:29:12;75.20;;;7.93;;
20497;SDS011;10407;53.238;10.448;2023-04-06T02:31:39;75.27;;;7.90;;
20497;SDS011;10407;53.238;10.448;2023-04-06T02:34:07;79.87;;;6.80;;
20497;SDS011;10407;53.238;10.448;2023-04-06T02:36:36;75.90;;;7.33;;
20497;SDS011;10407;53.238;10.448;2023-04-06T02:39:04;75.37;;;7.60;;
20497;SDS011;10407;53.238;10.448;2023-04-06T02:41:31;76.10;;;7.30;;
20497;SDS011;10407;53.238;10.448;2023-04-06T02:43:59;77.20;;;7.57;;
20497;SDS011;10407;53.238;10.448;2023-04-06T02:46:26;76.13;;;8.60;;
20497;SDS011;10407;53.238;10.448;2023-04-06T02:48:54;75.17;;;7.33;;
20497;SDS011;10407;53.238;10.448;2023-04-06T02:51:22;78.17;;;9.10;;
20497;SDS011;10407;53.238;10.448;2023-04-06T02:53:49;75.87;;;7.80;;
20497;SDS011;10407;53.238;10.448;2023-04-06T02:56:17;76.07;;;7.40;;
20497;SDS011;10407;53.238;10.448;2023-04-06T02:58:46;78.27;;;7.20;;
20497;SDS011;10407;53.238;10.448;2023-04-06T03:01:14;75.10;;;7.50;;
20497;SDS011;10407;53.238;10.448;2023-04-06T03:03:42;77.37;;;8.53;;
20497;SDS011;10407;53.238;10.448;2023-04-06T03:06:10;78.70;;;8.37;;
20497;SDS011;10407;53.238;10.448;2023-04-06T03:08:37;75.30;;;6.90;;
20497;SDS011;10407;53.238;10.448;2023-04-06T03:11:05;77.63;;;7.47;;
20497;SDS011;10407;53.238;10.448;2023-04-06T03:13:32;78.50;;;8.67;;
20497;SDS011;10407;53.238;10.448;2023-04-06T03:16:00;77.27;;;8.60;;
20497;SDS011;10407;53.238;10.448;2023-04-06T03:18:28;75.87;;;7.90;;
20497;SDS011;10407;53.238;10.448;2023-04-06T03:20:55;77.50;;;8.30;;
20497;SDS011;10407;53.238;10.448;2023-04-06T03:23:23;77.67;;;8.63;;
20497;SDS011;10407;53.238;10.448;2023-04-06T03:25:50;79.33;;;9.47;;
20497;SDS011;10407;53.238;10.448;2023-04-06T03:28:18;79.63;;;8.07;;
20497;SDS011;10407;53.238;10.448;2023-04-06T03:30:46;81.47;;;7.50;;
20497;SDS011;10407;53.238;10.448;2023-04-06T03:33:13;76.80;;;8.00;;
20497;SDS011;10407;53.238;10.448;2023-04-06T03:35:41;79.97;;;7.80;;
20497;SDS011;10407;53.238;10.448;2023-04-06T03:38:09;77.50;;;9.20;;
20497;SDS011;10407;53.238;10.448;2023-04-06T03:40:36;78.40;;;8.03;;
20497;SDS011;10407;53.238;10.448;2023-04-06T03:43:04;76.57;;;7.50;;
20497;SDS011;10407;53.238;10.448;2023-04-06T03:45:31;81.20;;;8.23;;
20497;SDS011;10407;53.238;10.448;2023-04-06T03:47:59;75.67;;;7.87;;
20497;SDS011;10407;53.238;10.448;2023-04-06T03:50:26;77.57;;;7.87;;
20497;SDS011;10407;53.238;10.448;2023-04-06T03:52:54;78.10;;;9.20;;
20497;SDS011;10407;53.238;10.448;2023-04-06T03:55:22;79.30;;;8.83;;
20497;SDS011;10407;53.238;10.448;2023-04-06T03:57:49;76.87;;;8.60;;
20497;SDS011;10407;53.238;10.448;2023-04-06T04:00:17;80.20;;;8.60;;
20497;SDS011;10407;53.238;10.448;2023-04-06T04:02:44;78.97;;;9.23;;
20497;SDS011;10407;53.238;10.448;2023-04-06T04:05:12;79.10;;;9.00;;
20497;SDS011;10407;53.238;10.448;2023-04-06T04:07:40;76.73;;;7.93;;
20497;SDS011;10407;53.238;10.448;2023-04-06T04:10:07;79.73;;;8.73;;
20497;SDS011;10407;53.238;10.448;2023-04-06T04:12:36;80.30;;;9.20;;
20497;SDS011;10407;53.238;10.448;2023-04-06T04:15:03;84.00;;;9.27;;
20497;SDS011;10407;53.238;10.448;2023-04-06T04:17:31;78.33;;;8.27;;
20497;SDS011;10407;53.238;10.448;2023-04-06T04:19:59;77.70;;;8.57;;
20497;SDS011;10407;53.238;10.448;2023-04-06T04:22:26;79.20;;;8.50;;
20497;SDS011;10407;53.238;10.448;2023-04-06T04:24:54;79.10;;;9.43;;
20497;SDS011;10407;53.238;10.448;2023-04-06T04:27:21;78.70;;;8.17;;
20497;SDS011;10407;53.238;10.448;2023-04-06T04:29:49;81.07;;;9.73;;
20497;SDS011;10407;53.238;10.448;2023-04-06T04:32:16;86.73;;;12.67;;
20497;SDS011;10407;53.238;10.448;2023-04-06T04:34:44;80.07;;;10.27;;
20497;SDS011;10407;53.238;10.448;2023-04-06T04:37:11;77.77;;;9.20;;
20497;SDS011;10407;53.238;10.448;2023-04-06T04:39:39;84.33;;;11.67;;
20497;SDS011;10407;53.238;10.448;2023-04-06T04:42:07;80.30;;;10.00;;
20497;SDS011;10407;53.238;10.448;2023-04-06T04:44:34;81.90;;;10.20;;
20497;SDS011;10407;53.238;10.448;2023-04-06T04:47:02;82.07;;;9.30;;
20497;SDS011;10407;53.238;10.448;2023-04-06T04:49:29;79.90;;;10.00;;
20497;SDS011;10407;53.238;10.448;2023-04-06T04:51:57;77.53;;;10.40;;
20497;SDS011;10407;53.238;10.448;2023-04-06T04:54:24;82.23;;;10.70;;
20497;SDS011;10407;53.238;10.448;2023-04-06T04:56:52;86.00;;;11.33;;
20497;SDS011;10407;53.238;10.448;2023-04-06T04:59:19;82.43;;;10.97;;
20497;SDS011;10407;53.238;10.448;2023-04-06T05:01:47;86.83;;;10.07;;
20497;SDS011;10407;53.238;10.448;2023-04-06T05:04:14;80.60;;;10.70;;
20497;SDS011;10407;53.238;10.448;2023-04-06T05:06:42;84.50;;;12.87;;
20497;SDS011;10407;53.238;10.448;2023-04-06T05:09:10;84.27;;;12.80;;
20497;SDS011;10407;53.238;10.448;2023-04-06T05:11:37;80.20;;;11.90;;
20497;SDS011;10407;53.238;10.448;2023-04-06T05:14:05;80.37;;;10.90;;
20497;SDS011;10407;53.238;10.448;2023-04-06T05:16:33;85.07;;;11.53;;
20497;SDS011;10407;53.238;10.448;2023-04-06T05:19:01;82.17;;;11.00;;
20497;SDS011;10407;53.238;10.448;2023-04-06T05:21:29;79.67;;;10.43;;
20497;SDS011;10407;53.238;10.448;2023-04-06T05:23:57;83.10;;;12.63;;
20497;SDS011;10407;53.238;10.448;2023-04-06T05:26:25;81.10;;;11.03;;
20497;SDS011;10407;53.238;10.448;2023-04-06T05:28:53;81.53;;;11.63;;
20497;SDS011;10407;53.238;10.448;2023-04-06T05:31:21;86.73;;;12.30;;
20497;SDS011;10407;53.238;10.448;2023-04-06T05:33:48;82.57;;;11.83;;
20497;SDS011;10407;53.238;10.448;2023-04-06T05:36:16;81.97;;;12.37;;
20497;SDS011;10407;53.238;10.448;2023-04-06T05:38:43;80.47;;;10.93;;
20497;SDS011;10407;53.238;10.448;2023-04-06T05:41:11;81.17;;;11.33;;
20497;SDS011;10407;53.238;10.448;2023-04-06T05:43:39;82.60;;;12.30;;
20497;SDS011;10407;53.238;10.448;2023-04-06T05:46:07;79.27;;;11.50;;
20497;SDS011;10407;53.238;10.448;2023-04-06T05:48:34;83.00;;;10.90;;
20497;SDS011;10407;53.238;10.448;2023-04-06T05:51:02;83.40;;;12.10;;
20497;SDS011;10407;53.238;10.448;2023-04-06T05:53:32;80.37;;;10.97;;
20497;SDS011;10407;53.238;10.448;2023-04-06T05:56:02;81.57;;;11.40;;
20497;SDS011;10407;53.238;10.448;2023-04-06T05:58:31;82.30;;;12.10;;
20497;SDS011;10407;53.238;10.448;2023-04-06T06:00:59;79.17;;;10.27;;
20497;SDS011;10407;53.238;10.448;2023-04-06T06:03:27;79.90;;;10.53;;
20497;SDS011;10407;53.238;10.448;2023-04-06T06:06:01;80.63;;;10.63;;
20497;SDS011;10407;53.238;10.448;2023-04-06T06:08:30;78.47;;;10.20;;
20497;SDS011;10407;53.238;10.448;2023-04-06T06:10:57;81.60;;;9.40;;
20497;SDS011;10407;53.238;10.448;2023-04-06T06:13:25;78.10;;;8.57;;
20497;SDS011;10407;53.238;10.448;2023-04-06T06:15:53;80.00;;;8.30;;
20497;SDS011;10407;53.238;10.448;2023-04-06T06:18:21;79.73;;;8.47;;
20497;SDS011;10407;53.238;10.448;2023-04-06T06:20:48;77.80;;;9.13;;
20497;SDS011;10407;53.238;10.448;2023-04-06T06:23:16;78.60;;;9.33;;
20497;SDS011;10407;53.238;10.448;2023-04-06T06:25:43;78.03;;;7.37;;
20497;SDS011;10407;53.238;10.448;2023-04-06T06:28:11;76.60;;;7.17;;
20497;SDS011;10407;53.238;10.448;2023-04-06T06:30:38;76.20;;;7.70;;
20497;SDS011;10407;53.238;10.448;2023-04-06T06:33:06;77.87;;;8.00;;
20497;SDS011;10407;53.238;10.448;2023-04-06T06:35:33;77.30;;;7.27;;
20497;SDS011;10407;53.238;10.448;2023-04-06T06:38:01;74.97;;;7.00;;
20497;SDS011;10407;53.238;10.448;2023-04-06T06:40:28;78.77;;;7.43;;
20497;SDS011;10407;53.238;10.448;2023-04-06T06:42:56;78.17;;;7.63;;
20497;SDS011;10407;53.238;10.448;2023-04-06T06:45:23;78.80;;;8.40;;
20497;SDS011;10407;53.238;10.448;2023-04-06T06:47:51;78.73;;;7.47;;
20497;SDS011;10407;53.238;10.448;2023-04-06T06:50:19;77.80;;;7.90;;
20497;SDS011;10407;53.238;10.448;2023-04-06T06:52:46;77.73;;;7.63;;
20497;SDS011;10407;53.238;10.448;2023-04-06T06:55:14;76.20;;;7.30;;
20497;SDS011;10407;53.238;10.448;2023-04-06T06:57:43;75.70;;;7.80;;
20497;SDS011;10407;53.238;10.448;2023-04-06T07:00:13;76.20;;;6.90;;
20497;SDS011;10407;53.238;10.448;2023-04-06T07:02:41;77.57;;;7.50;;
20497;SDS011;10407;53.238;10.448;2023-04-06T07:05:08;75.70;;;7.10;;
20497;SDS011;10407;53.238;10.448;2023-04-06T07:07:36;79.37;;;8.43;;
20497;SDS011;10407;53.238;10.448;2023-04-06T07:10:04;76.70;;;8.60;;
20497;SDS011;10407;53.238;10.448;2023-04-06T07:12:31;75.57;;;8.43;;
20497;SDS011;10407;53.238;10.448;2023-04-06T07:14:59;76.87;;;8.20;;
20497;SDS011;10407;53.238;10.448;2023-04-06T07:17:27;78.10;;;8.33;;
20497;SDS011;10407;53.238;10.448;2023-04-06T07:19:54;78.20;;;8.70;;
20497;SDS011;10407;53.238;10.448;2023-04-06T07:22:22;77.47;;;7.80;;
20497;SDS011;10407;53.238;10.448;2023-04-06T07:24:50;77.80;;;7.63;;
20497;SDS011;10407;53.238;10.448;2023-04-06T07:27:17;78.67;;;7.97;;
20497;SDS011;10407;53.238;10.448;2023-04-06T07:29:45;78.60;;;8.50;;
20497;SDS011;10407;53.238;10.448;2023-04-06T07:32:13;77.33;;;8.30;;
20497;SDS011;10407;53.238;10.448;2023-04-06T07:34:40;77.67;;;7.57;;
20497;SDS011;10407;53.238;10.448;2023-04-06T07:37:10;78.50;;;7.43;;
20497;SDS011;10407;53.238;10.448;2023-04-06T07:39:38;77.87;;;7.53;;
20497;SDS011;10407;53.238;10.448;2023-04-06T07:42:06;76.57;;;7.27;;
20497;SDS011;10407;53.238;10.448;2023-04-06T07:44:33;77.20;;;7.80;;
20497;SDS011;10407;53.238;10.448;2023-04-06T07:47:01;78.50;;;7.50;;
20497;SDS011;10407;53.238;10.448;2023-04-06T07:49:28;77.70;;;6.80;;
20497;SDS011;10407;53.238;10.448;2023-04-06T07:51:57;75.37;;;7.27;;
20497;SDS011;10407;53.238;10.448;2023-04-06T07:54:26;76.53;;;7.67;;
20497;SDS011;10407;53.238;10.448;2023-04-06T07:56:54;75.50;;;7.37;;
20497;SDS011;10407;53.238;10.448;2023-04-06T07:59:21;77.37;;;6.60;;
20497;SDS011;10407;53.238;10.448;2023-04-06T08:01:49;76.87;;;7.60;;
20497;SDS011;10407;53.238;10.448;2023-04-06T08:04:16;76.13;;;6.80;;
20497;SDS011;10407;53.238;10.448;2023-04-06T08:06:44;75.73;;;6.73;;
20497;SDS011;10407;53.238;10.448;2023-04-06T08:09:11;75.70;;;6.83;;
20497;SDS011;10407;53.238;10.448;2023-04-06T08:11:39;77.80;;;7.90;;
20497;SDS011;10407;53.238;10.448;2023-04-06T08:14:06;76.97;;;6.70;;
20497;SDS011;10407;53.238;10.448;2023-04-06T08:16:34;76.07;;;6.67;;
20497;SDS011;10407;53.238;10.448;2023-04-06T08:19:02;77.47;;;7.97;;
20497;SDS011;10407;53.238;10.448;2023-04-06T08:21:30;74.80;;;6.53;;
20497;SDS011;10407;53.238;10.448;2023-04-06T08:23:57;77.07;;;7.90;;
20497;SDS011;10407;53.238;10.448;2023-04-06T08:26:25;77.00;;;7.93;;
20497;SDS011;10407;53.238;10.448;2023-04-06T08:28:52;78.90;;;8.33;;
20497;SDS011;10407;53.238;10.448;2023-04-06T08:31:20;77.10;;;7.90;;
20497;SDS011;10407;53.238;10.448;2023-04-06T08:33:47;77.87;;;7.40;;
20497;SDS011;10407;53.238;10.448;2023-04-06T08:36:15;79.27;;;8.20;;
20497;SDS011;10407;53.238;10.448;2023-04-06T08:38:44;79.10;;;7.17;;
20497;SDS011;10407;53.238;10.448;2023-04-06T08:44:01;76.27;;;7.67;;
20497;SDS011;10407;53.238;10.448;2023-04-06T08:46:30;77.43;;;7.40;;
20497;SDS011;10407;53.238;10.448;2023-04-06T08:48:59;76.40;;;7.90;;
20497;SDS011;10407;53.238;10.448;2023-04-06T08:51:31;76.77;;;7.20;;
20497;SDS011;10407;53.238;10.448;2023-04-06T08:53:59;75.57;;;7.43;;
20497;SDS011;10407;53.238;10.448;2023-04-06T08:56:27;78.07;;;7.77;;
20497;SDS011;10407;53.238;10.448;2023-04-06T08:58:56;76.60;;;8.27;;
20497;SDS011;10407;53.238;10.448;2023-04-06T09:01:27;76.77;;;7.23;;
20497;SDS011;10407;53.238;10.448;2023-04-06T09:03:56;77.07;;;7.50;;
20497;SDS011;10407;53.238;10.448;2023-04-06T09:06:26;75.47;;;6.37;;
20497;SDS011;10407;53.238;10.448;2023-04-06T09:08:54;78.30;;;8.07;;
20497;SDS011;10407;53.238;10.448;2023-04-06T09:11:22;75.77;;;7.83;;
20497;SDS011;10407;53.238;10.448;2023-04-06T09:13:51;79.10;;;7.70;;
20497;SDS011;10407;53.238;10.448;2023-04-06T09:16:23;78.23;;;7.90;;
20497;SDS011;10407;53.238;10.448;2023-04-06T09:18:51;75.53;;;7.20;;
20497;SDS011;10407;53.238;10.448;2023-04-06T09:21:19;77.47;;;8.07;;
20497;SDS011;10407;53.238;10.448;2023-04-06T09:23:47;75.77;;;7.40;;
20497;SDS011;10407;53.238;10.448;2023-04-06T09:26:16;75.07;;;6.73;;
20497;SDS011;10407;53.238;10.448;2023-04-06T09:28:47;75.30;;;6.23;;
20497;SDS011;10407;53.238;10.448;2023-04-06T09:31:21;78.57;;;7.50;;
20497;SDS011;10407;53.238;10.448;2023-04-06T09:33:49;77.77;;;7.80;;
20497;SDS011;10407;53.238;10.448;2023-04-06T09:36:30;76.40;;;8.00;;
20497;SDS011;10407;53.238;10.448;2023-04-06T09:38:58;77.90;;;7.43;;
20497;SDS011;10407;53.238;10.448;2023-04-06T09:41:28;76.93;;;7.90;;
20497;SDS011;10407;53.238;10.448;2023-04-06T09:44:07;77.63;;;8.50;;
20497;SDS011;10407;53.238;10.448;2023-04-06T09:46:43;79.00;;;8.23;;
20497;SDS011;10407;53.238;10.448;2023-04-06T09:49:12;82.47;;;8.63;;
20497;SDS011;10407;53.238;10.448;2023-04-06T09:52:03;82.33;;;9.03;;
20497;SDS011;10407;53.238;10.448;2023-04-06T09:54:18;79.27;;;8.53;;
20497;SDS011;10407;53.238;10.448;2023-04-06T09:56:47;82.40;;;6.93;;
20497;SDS011;10407;53.238;10.448;2023-04-06T09:59:25;77.10;;;7.77;;
20497;SDS011;10407;53.238;10.448;2023-04-06T10:02:08;78.00;;;7.63;;
20497;SDS011;10407;53.238;10.448;2023-04-06T10:04:48;76.47;;;7.33;;
20497;SDS011;10407;53.238;10.448;2023-04-06T10:07:24;76.13;;;7.60;;
20497;SDS011;10407;53.238;10.448;2023-04-06T10:09:53;78.90;;;8.63;;
20497;SDS011;10407;53.238;10.448;2023-04-06T10:12:22;82.20;;;9.07;;
20497;SDS011;10407;53.238;10.448;2023-04-06T10:14:50;77.60;;;8.23;;
20497;SDS011;10407;53.238;10.448;2023-04-06T10:17:18;78.80;;;8.00;;
20497;SDS011;10407;53.238;10.448;2023-04-06T10:23:06;79.63;;;8.87;;
20497;SDS011;10407;53.238;10.448;2023-04-06T10:25:04;78.50;;;8.80;;
20497;SDS011;10407;53.238;10.448;2023-04-06T10:27:32;84.67;;;7.90;;
20497;SDS011;10407;53.238;10.448;2023-04-06T10:30:01;76.47;;;7.63;;
20497;SDS011;10407;53.238;10.448;2023-04-06T10:32:33;79.20;;;8.53;;
20497;SDS011;10407;53.238;10.448;2023-04-06T10:35:11;75.80;;;7.57;;
20497;SDS011;10407;53.238;10.448;2023-04-06T10:37:51;79.00;;;7.43;;
20497;SDS011;10407;53.238;10.448;2023-04-06T10:40:24;78.00;;;8.20;;
20497;SDS011;10407;53.238;10.448;2023-04-06T10:42:55;78.13;;;8.30;;
20497;SDS011;10407;53.238;10.448;2023-04-06T10:45:25;80.07;;;8.60;;
20497;SDS011;10407;53.238;10.448;2023-04-06T10:47:54;76.47;;;7.67;;
20497;SDS011;10407;53.238;10.448;2023-04-06T10:50:23;79.70;;;7.97;;
20497;SDS011;10407;53.238;10.448;2023-04-06T10:53:01;78.60;;;8.57;;
20497;SDS011;10407;53.238;10.448;2023-04-06T10:55:29;76.30;;;7.60;;
20497;SDS011;10407;53.238;10.448;2023-04-06T10:57:57;78.17;;;7.90;;
20497;SDS011;10407;53.238;10.448;2023-04-06T11:00:25;79.67;;;8.37;;
20497;SDS011;10407;53.238;10.448;2023-04-06T11:02:58;79.03;;;8.80;;
20497;SDS011;10407;53.238;10.448;2023-04-06T11:05:28;78.17;;;8.83;;
20497;SDS011;10407;53.238;10.448;2023-04-06T11:07:56;80.60;;;8.70;;
20497;SDS011;10407;53.238;10.448;2023-04-06T11:10:23;79.83;;;9.27;;
20497;SDS011;10407;53.238;10.448;2023-04-06T11:12:54;78.60;;;8.60;;
20497;SDS011;10407;53.238;10.448;2023-04-06T11:15:22;82.47;;;9.03;;
20497;SDS011;10407;53.238;10.448;2023-04-06T11:17:50;80.97;;;8.63;;
20497;SDS011;10407;53.238;10.448;2023-04-06T11:20:17;80.60;;;8.87;;
20497;SDS011;10407;53.238;10.448;2023-04-06T11:22:49;81.87;;;10.10;;
20497;SDS011;10407;53.238;10.448;2023-04-06T11:25:20;79.43;;;8.57;;
20497;SDS011;10407;53.238;10.448;2023-04-06T11:27:47;77.77;;;8.10;;
20497;SDS011;10407;53.238;10.448;2023-04-06T11:30:15;77.70;;;8.37;;
20497;SDS011;10407;53.238;10.448;2023-04-06T11:32:44;81.97;;;8.70;;
20497;SDS011;10407;53.238;10.448;2023-04-06T11:35:22;79.37;;;9.20;;
20497;SDS011;10407;53.238;10.448;2023-04-06T11:37:50;78.50;;;8.97;;
20497;SDS011;10407;53.238;10.448;2023-04-06T11:40:21;79.53;;;8.20;;
20497;SDS011;10407;53.238;10.448;2023-04-06T11:42:53;78.07;;;8.83;;
20497;SDS011;10407;53.238;10.448;2023-04-06T11:45:22;78.50;;;8.80;;
20497;SDS011;10407;53.238;10.448;2023-04-06T11:47:57;82.00;;;9.27;;
20497;SDS011;10407;53.238;10.448;2023-04-06T11:50:31;78.70;;;8.47;;
20497;SDS011;10407;53.238;10.448;2023-04-06T11:53:01;80.40;;;9.90;;
20497;SDS011;10407;53.238;10.448;2023-04-06T11:55:29;77.53;;;9.00;;
20497;SDS011;10407;53.238;10.448;2023-04-06T11:57:58;79.73;;;9.77;;
20497;SDS011;10407;53.238;10.448;2023-04-06T12:00:26;79.67;;;9.50;;
20497;SDS011;10407;53.238;10.448;2023-04-06T12:02:55;81.33;;;10.80;;
20497;SDS011;10407;53.238;10.448;2023-04-06T12:05:25;83.03;;;10.67;;
20497;SDS011;10407;53.238;10.448;2023-04-06T12:07:53;82.13;;;9.17;;
20497;SDS011;10407;53.238;10.448;2023-04-06T12:10:21;79.87;;;9.17;;
20497;SDS011;10407;53.238;10.448;2023-04-06T12:12:48;82.30;;;10.77;;
20497;SDS011;10407;53.238;10.448;2023-04-06T12:15:16;79.57;;;8.63;;
20497;SDS011;10407;53.238;10.448;2023-04-06T12:17:43;79.40;;;9.53;;
20497;SDS011;10407;53.238;10.448;2023-04-06T12:20:11;81.50;;;9.97;;
20497;SDS011;10407;53.238;10.448;2023-04-06T12:22:39;79.77;;;9.30;;
20497;SDS011;10407;53.238;10.448;2023-04-06T12:25:07;82.80;;;10.43;;
20497;SDS011;10407;53.238;10.448;2023-04-06T12:27:34;79.13;;;9.57;;
20497;SDS011;10407;53.238;10.448;2023-04-06T12:30:02;80.80;;;10.60;;
20497;SDS011;10407;53.238;10.448;2023-04-06T12:32:31;81.13;;;10.27;;
20497;SDS011;10407;53.238;10.448;2023-04-06T12:34:58;89.13;;;12.93;;
20497;SDS011;10407;53.238;10.448;2023-04-06T12:37:26;83.00;;;10.67;;
20497;SDS011;10407;53.238;10.448;2023-04-06T12:39:54;84.00;;;12.63;;
20497;SDS011;10407;53.238;10.448;2023-04-06T12:42:22;86.37;;;10.33;;
20497;SDS011;10407;53.238;10.448;2023-04-06T12:44:50;80.03;;;10.00;;
20497;SDS011;10407;53.238;10.448;2023-04-06T12:47:17;81.87;;;10.37;;
20497;SDS011;10407;53.238;10.448;2023-04-06T12:49:45;82.63;;;9.00;;
20497;SDS011;10407;53.238;10.448;2023-04-06T12:52:13;81.90;;;10.40;;
20497;SDS011;10407;53.238;10.448;2023-04-06T12:54:41;78.67;;;8.80;;
20497;SDS011;10407;53.238;10.448;2023-04-06T12:57:09;78.70;;;9.30;;
20497;SDS011;10407;53.238;10.448;2023-04-06T12:59:36;92.73;;;9.90;;
20497;SDS011;10407;53.238;10.448;2023-04-06T13:02:04;81.40;;;9.13;;
20497;SDS011;10407;53.238;10.448;2023-04-06T13:04:32;80.80;;;10.50;;
20497;SDS011;10407;53.238;10.448;2023-04-06T13:06:59;79.20;;;9.73;;
20497;SDS011;10407;53.238;10.448;2023-04-06T13:09:27;81.37;;;10.43;;
20497;SDS011;10407;53.238;10.448;2023-04-06T13:11:55;79.07;;;10.03;;
20497;SDS011;10407;53.238;10.448;2023-04-06T13:14:22;82.13;;;10.43;;
20497;SDS011;10407;53.238;10.448;2023-04-06T13:16:50;81.93;;;9.83;;
20497;SDS011;10407;53.238;10.448;2023-04-06T13:19:18;79.47;;;10.10;;
20497;SDS011;10407;53.238;10.448;2023-04-06T13:21:45;80.57;;;10.40;;
20497;SDS011;10407;53.238;10.448;2023-04-06T13:24:13;79.17;;;10.10;;
20497;SDS011;10407;53.238;10.448;2023-04-06T13:26:41;80.50;;;10.47;;
20497;SDS011;10407;53.238;10.448;2023-04-06T13:29:09;79.27;;;10.03;;
20497;SDS011;10407;53.238;10.448;2023-04-06T13:31:36;80.37;;;10.27;;
20497;SDS011;10407;53.238;10.448;2023-04-06T13:34:04;81.07;;;9.00;;
20497;SDS011;10407;53.238;10.448;2023-04-06T13:36:32;81.67;;;9.63;;
20497;SDS011;10407;53.238;10.448;2023-04-06T13:39:00;81.40;;;10.20;;
20497;SDS011;10407;53.238;10.448;2023-04-06T13:41:28;81.00;;;10.03;;
20497;SDS011;10407;53.238;10.448;2023-04-06T13:43:56;84.40;;;10.20;;
20497;SDS011;10407;53.238;10.448;2023-04-06T13:46:23;81.00;;;9.70;;
20497;SDS011;10407;53.238;10.448;2023-04-06T13:48:51;81.40;;;9.67;;
20497;SDS011;10407;53.238;10.448;2023-04-06T13:51:18;80.77;;;9.87;;
20497;SDS011;10407;53.238;10.448;2023-04-06T13:53:46;83.50;;;9.30;;
20497;SDS011;10407;53.238;10.448;2023-04-06T13:56:15;79.53;;;9.87;;
20497;SDS011;10407;53.238;10.448;2023-04-06T13:58:43;85.30;;;10.90;;
20497;SDS011;10407;53.238;10.448;2023-04-06T14:01:10;80.87;;;9.93;;
20497;SDS011;10407;53.238;10.448;2023-04-06T14:03:38;83.57;;;10.27;;
20497;SDS011;10407;53.238;10.448;2023-04-06T14:06:11;80.60;;;10.10;;
20497;SDS011;10407;53.238;10.448;2023-04-06T14:08:39;83.00;;;10.17;;
20497;SDS011;10407;53.238;10.448;2023-04-06T14:11:10;79.07;;;9.93;;
20497;SDS011;10407;53.238;10.448;2023-04-06T14:13:39;83.40;;;10.30;;
20497;SDS011;10407;53.238;10.448;2023-04-06T14:16:07;80.93;;;9.60;;
20497;SDS011;10407;53.238;10.448;2023-04-06T14:18:36;79.27;;;10.53;;
20497;SDS011;10407;53.238;10.448;2023-04-06T14:21:03;77.90;;;9.40;;
20497;SDS011;10407;53.238;10.448;2023-04-06T14:23:31;81.60;;;10.57;;
20497;SDS011;10407;53.238;10.448;2023-04-06T14:26:07;82.30;;;11.03;;
20497;SDS011;10407;53.238;10.448;2023-04-06T14:28:37;82.13;;;10.13;;
20497;SDS011;10407;53.238;10.448;2023-04-06T14:31:02;78.90;;;9.63;;